sensor_id;sensor_type;location;lat;lon;timestamp;temperature;humidity
52787;DHT22;38661;53.152;5.846;2023-01-16T00:01:21;4.80;95.60
52787;DHT22;38661;53.152;5.846;2023-01-16T00:03:47;4.80;95.50
52787;DHT22;38661;53.152;5.846;2023-01-16T00:06:13;4.80;95.50
52787;DHT22;38661;53.152;5.846;2023-01-16T00:08:40;4.80;95.60
52787;DHT22;38661;53.152;5.846;2023-01-16T00:11:06;4.80;95.40
52787;DHT22;38661;53.152;5.846;2023-01-16T00:13:31;4.80;95.30
52787;DHT22;38661;53.152;5.846;2023-01-16T00:15:57;4.80;95.30
52787;DHT22;38661;53.152;5.846;2023-01-16T00:18:23;4.80;95.20
52787;DHT22;38661;53.152;5.846;2023-01-16T00:20:49;4.90;95.10
52787;DHT22;38661;53.152;5.846;2023-01-16T00:23:15;4.80;95.00
52787;DHT22;38661;53.152;5.846;2023-01-16T00:25:42;4.90;95.10
52787;DHT22;38661;53.152;5.846;2023-01-16T00:28:12;4.90;95.20
52787;DHT22;38661;53.152;5.846;2023-01-16T00:30:38;4.80;95.30
52787;DHT22;38661;53.152;5.846;2023-01-16T00:33:05;4.90;95.30
52787;DHT22;38661;53.152;5.846;2023-01-16T00:35:31;4.90;95.20
52787;DHT22;38661;53.152;5.846;2023-01-16T00:37:56;4.80;95.20
52787;DHT22;38661;53.152;5.846;2023-01-16T00:40:22;4.90;95.20
52787;DHT22;38661;53.152;5.846;2023-01-16T00:42:48;4.80;95.20
52787;DHT22;38661;53.152;5.846;2023-01-16T00:45:14;4.80;95.30
52787;DHT22;38661;53.152;5.846;2023-01-16T00:47:40;4.80;95.30
52787;DHT22;38661;53.152;5.846;2023-01-16T00:50:06;4.80;95.20
52787;DHT22;38661;53.152;5.846;2023-01-16T00:52:32;4.90;95.30
52787;DHT22;38661;53.152;5.846;2023-01-16T00:54:58;4.80;95.20
52787;DHT22;38661;53.152;5.846;2023-01-16T00:57:24;4.80;95.20
52787;DHT22;38661;53.152;5.846;2023-01-16T00:59:49;4.80;95.10
52787;DHT22;38661;53.152;5.846;2023-01-16T01:02:15;4.80;95.10
52787;DHT22;38661;53.152;5.846;2023-01-16T01:04:41;4.80;95.10
52787;DHT22;38661;53.152;5.846;2023-01-16T01:07:07;4.70;95.00
52787;DHT22;38661;53.152;5.846;2023-01-16T01:09:33;4.70;94.90
52787;DHT22;38661;53.152;5.846;2023-01-16T01:11:59;4.70;95.00
52787;DHT22;38661;53.152;5.846;2023-01-16T01:14:25;4.70;95.00
52787;DHT22;38661;53.152;5.846;2023-01-16T01:16:51;4.60;94.90
52787;DHT22;38661;53.152;5.846;2023-01-16T01:19:17;4.60;94.90
52787;DHT22;38661;53.152;5.846;2023-01-16T01:21:43;4.60;94.90
52787;DHT22;38661;53.152;5.846;2023-01-16T01:24:10;4.60;94.90
52787;DHT22;38661;53.152;5.846;2023-01-16T01:26:36;4.60;95.00
52787;DHT22;38661;53.152;5.846;2023-01-16T01:29:02;4.50;94.90
52787;DHT22;38661;53.152;5.846;2023-01-16T01:31:28;4.50;95.00
52787;DHT22;38661;53.152;5.846;2023-01-16T01:33:53;4.50;95.00
52787;DHT22;38661;53.152;5.846;2023-01-16T01:36:19;4.50;95.00
52787;DHT22;38661;53.152;5.846;2023-01-16T01:38:44;4.50;95.00
52787;DHT22;38661;53.152;5.846;2023-01-16T01:41:15;4.40;95.10
52787;DHT22;38661;53.152;5.846;2023-01-16T01:43:45;4.40;95.00
52787;DHT22;38661;53.152;5.846;2023-01-16T01:46:43;4.50;95.10
52787;DHT22;38661;53.152;5.846;2023-01-16T01:51:42;4.50;95.10
52787;DHT22;38661;53.152;5.846;2023-01-16T01:54:22;4.40;95.10
52787;DHT22;38661;53.152;5.846;2023-01-16T01:56:53;4.40;95.00
52787;DHT22;38661;53.152;5.846;2023-01-16T01:59:25;4.40;95.10
52787;DHT22;38661;53.152;5.846;2023-01-16T02:01:53;4.40;95.10
52787;DHT22;38661;53.152;5.846;2023-01-16T02:04:24;4.40;95.10
52787;DHT22;38661;53.152;5.846;2023-01-16T02:06:54;4.30;95.20
52787;DHT22;38661;53.152;5.846;2023-01-16T02:09:21;4.30;95.20
52787;DHT22;38661;53.152;5.846;2023-01-16T02:11:50;4.30;95.20
52787;DHT22;38661;53.152;5.846;2023-01-16T02:14:17;4.30;95.20
52787;DHT22;38661;53.152;5.846;2023-01-16T02:16:45;4.30;95.20
52787;DHT22;38661;53.152;5.846;2023-01-16T02:19:37;4.30;95.20
52787;DHT22;38661;53.152;5.846;2023-01-16T02:36:37;4.10;95.20
52787;DHT22;38661;53.152;5.846;2023-01-16T02:42:24;4.00;95.30
52787;DHT22;38661;53.152;5.846;2023-01-16T02:45:20;4.00;95.30
52787;DHT22;38661;53.152;5.846;2023-01-16T02:50:39;3.90;95.60
52787;DHT22;38661;53.152;5.846;2023-01-16T02:56:07;3.90;95.40
52787;DHT22;38661;53.152;5.846;2023-01-16T02:58:40;3.90;95.50
52787;DHT22;38661;53.152;5.846;2023-01-16T03:01:07;3.90;95.50
52787;DHT22;38661;53.152;5.846;2023-01-16T03:15:21;3.90;95.50
52787;DHT22;38661;53.152;5.846;2023-01-16T03:20:39;3.80;95.50
52787;DHT22;38661;53.152;5.846;2023-01-16T03:23:14;3.80;95.50
52787;DHT22;38661;53.152;5.846;2023-01-16T03:26:04;3.70;95.50
52787;DHT22;38661;53.152;5.846;2023-01-16T03:31:31;3.70;95.40
52787;DHT22;38661;53.152;5.846;2023-01-16T03:36:56;3.60;95.50
52787;DHT22;38661;53.152;5.846;2023-01-16T03:39:25;3.60;95.60
52787;DHT22;38661;53.152;5.846;2023-01-16T03:41:55;3.60;95.60
52787;DHT22;38661;53.152;5.846;2023-01-16T03:44:36;3.60;95.70
52787;DHT22;38661;53.152;5.846;2023-01-16T03:47:05;3.60;95.80
52787;DHT22;38661;53.152;5.846;2023-01-16T03:49:40;3.60;95.90
52787;DHT22;38661;53.152;5.846;2023-01-16T03:52:12;3.60;95.90
52787;DHT22;38661;53.152;5.846;2023-01-16T03:57:34;3.70;96.10
52787;DHT22;38661;53.152;5.846;2023-01-16T04:00:02;3.70;96.00
52787;DHT22;38661;53.152;5.846;2023-01-16T04:02:33;3.80;96.00
52787;DHT22;38661;53.152;5.846;2023-01-16T04:08:03;3.90;96.10
52787;DHT22;38661;53.152;5.846;2023-01-16T04:10:34;3.90;96.30
52787;DHT22;38661;53.152;5.846;2023-01-16T04:13:06;3.90;96.10
52787;DHT22;38661;53.152;5.846;2023-01-16T04:15:36;4.00;96.10
52787;DHT22;38661;53.152;5.846;2023-01-16T04:18:04;4.00;96.10
52787;DHT22;38661;53.152;5.846;2023-01-16T04:20:30;4.00;96.10
52787;DHT22;38661;53.152;5.846;2023-01-16T04:22:56;4.00;96.00
52787;DHT22;38661;53.152;5.846;2023-01-16T04:25:22;4.00;96.10
52787;DHT22;38661;53.152;5.846;2023-01-16T04:27:48;4.10;96.30
52787;DHT22;38661;53.152;5.846;2023-01-16T04:30:14;4.10;95.90
52787;DHT22;38661;53.152;5.846;2023-01-16T04:32:41;4.10;96.00
52787;DHT22;38661;53.152;5.846;2023-01-16T04:35:08;4.10;96.00
52787;DHT22;38661;53.152;5.846;2023-01-16T04:37:34;4.10;96.10
52787;DHT22;38661;53.152;5.846;2023-01-16T04:40:00;4.10;96.00
52787;DHT22;38661;53.152;5.846;2023-01-16T04:42:26;4.10;96.00
52787;DHT22;38661;53.152;5.846;2023-01-16T04:44:52;4.10;96.00
52787;DHT22;38661;53.152;5.846;2023-01-16T04:47:17;4.10;95.80
52787;DHT22;38661;53.152;5.846;2023-01-16T04:49:43;4.10;95.80
52787;DHT22;38661;53.152;5.846;2023-01-16T04:52:11;4.10;95.80
52787;DHT22;38661;53.152;5.846;2023-01-16T04:54:37;4.20;95.70
52787;DHT22;38661;53.152;5.846;2023-01-16T04:57:03;4.20;95.60
52787;DHT22;38661;53.152;5.846;2023-01-16T04:59:28;4.20;95.70
52787;DHT22;38661;53.152;5.846;2023-01-16T05:01:54;4.20;95.60
52787;DHT22;38661;53.152;5.846;2023-01-16T05:04:20;4.20;95.50
52787;DHT22;38661;53.152;5.846;2023-01-16T05:06:46;4.20;95.50
52787;DHT22;38661;53.152;5.846;2023-01-16T05:09:12;4.20;95.50
52787;DHT22;38661;53.152;5.846;2023-01-16T05:11:38;4.20;95.50
52787;DHT22;38661;53.152;5.846;2023-01-16T05:14:04;4.20;95.50
52787;DHT22;38661;53.152;5.846;2023-01-16T05:16:40;4.20;95.50
52787;DHT22;38661;53.152;5.846;2023-01-16T05:19:08;4.20;95.40
52787;DHT22;38661;53.152;5.846;2023-01-16T05:21:34;4.20;95.40
52787;DHT22;38661;53.152;5.846;2023-01-16T05:23:59;4.20;95.40
52787;DHT22;38661;53.152;5.846;2023-01-16T05:26:25;4.20;95.40
52787;DHT22;38661;53.152;5.846;2023-01-16T05:28:51;4.10;95.40
52787;DHT22;38661;53.152;5.846;2023-01-16T05:31:18;4.10;95.40
52787;DHT22;38661;53.152;5.846;2023-01-16T05:33:43;4.10;95.40
52787;DHT22;38661;53.152;5.846;2023-01-16T05:36:09;4.10;95.40
52787;DHT22;38661;53.152;5.846;2023-01-16T05:38:35;4.10;95.40
52787;DHT22;38661;53.152;5.846;2023-01-16T05:41:00;4.00;95.30
52787;DHT22;38661;53.152;5.846;2023-01-16T05:43:26;4.00;95.40
52787;DHT22;38661;53.152;5.846;2023-01-16T05:45:52;3.90;95.30
52787;DHT22;38661;53.152;5.846;2023-01-16T05:48:18;3.90;95.30
52787;DHT22;38661;53.152;5.846;2023-01-16T05:50:43;3.90;95.30
52787;DHT22;38661;53.152;5.846;2023-01-16T05:53:09;3.80;95.30
52787;DHT22;38661;53.152;5.846;2023-01-16T05:55:46;3.80;95.40
52787;DHT22;38661;53.152;5.846;2023-01-16T05:58:13;3.80;95.40
52787;DHT22;38661;53.152;5.846;2023-01-16T06:00:40;3.70;95.40
52787;DHT22;38661;53.152;5.846;2023-01-16T06:03:06;3.70;95.50
52787;DHT22;38661;53.152;5.846;2023-01-16T06:05:32;3.70;95.50
52787;DHT22;38661;53.152;5.846;2023-01-16T06:07:58;3.70;95.60
52787;DHT22;38661;53.152;5.846;2023-01-16T06:10:25;3.70;95.60
52787;DHT22;38661;53.152;5.846;2023-01-16T06:12:51;3.80;95.60
52787;DHT22;38661;53.152;5.846;2023-01-16T06:15:17;3.80;95.60
52787;DHT22;38661;53.152;5.846;2023-01-16T06:17:43;3.80;95.60
52787;DHT22;38661;53.152;5.846;2023-01-16T06:20:10;3.80;95.50
52787;DHT22;38661;53.152;5.846;2023-01-16T06:22:36;3.80;95.50
52787;DHT22;38661;53.152;5.846;2023-01-16T06:25:01;3.70;95.50
52787;DHT22;38661;53.152;5.846;2023-01-16T06:27:27;3.80;95.50
52787;DHT22;38661;53.152;5.846;2023-01-16T06:29:53;3.80;95.50
52787;DHT22;38661;53.152;5.846;2023-01-16T06:32:18;3.80;95.60
52787;DHT22;38661;53.152;5.846;2023-01-16T06:34:44;3.70;95.60
52787;DHT22;38661;53.152;5.846;2023-01-16T06:37:11;3.70;95.50
52787;DHT22;38661;53.152;5.846;2023-01-16T06:39:37;3.60;95.50
52787;DHT22;38661;53.152;5.846;2023-01-16T06:42:03;3.70;95.60
52787;DHT22;38661;53.152;5.846;2023-01-16T06:44:33;3.60;95.60
52787;DHT22;38661;53.152;5.846;2023-01-16T06:47:00;3.60;95.60
52787;DHT22;38661;53.152;5.846;2023-01-16T06:49:26;3.60;95.60
52787;DHT22;38661;53.152;5.846;2023-01-16T06:51:52;3.50;95.60
52787;DHT22;38661;53.152;5.846;2023-01-16T06:54:18;3.50;95.60
52787;DHT22;38661;53.152;5.846;2023-01-16T06:56:43;3.50;95.60
52787;DHT22;38661;53.152;5.846;2023-01-16T06:59:09;3.50;95.60
52787;DHT22;38661;53.152;5.846;2023-01-16T07:01:35;3.50;95.70
52787;DHT22;38661;53.152;5.846;2023-01-16T07:04:01;3.50;95.80
52787;DHT22;38661;53.152;5.846;2023-01-16T07:06:26;3.50;95.80
52787;DHT22;38661;53.152;5.846;2023-01-16T07:08:52;3.40;95.80
52787;DHT22;38661;53.152;5.846;2023-01-16T07:11:18;3.40;95.80
52787;DHT22;38661;53.152;5.846;2023-01-16T07:13:44;3.50;95.80
52787;DHT22;38661;53.152;5.846;2023-01-16T07:16:11;3.50;95.80
52787;DHT22;38661;53.152;5.846;2023-01-16T07:18:56;3.60;95.90
52787;DHT22;38661;53.152;5.846;2023-01-16T07:21:41;3.60;96.00
52787;DHT22;38661;53.152;5.846;2023-01-16T07:24:29;3.60;96.00
52787;DHT22;38661;53.152;5.846;2023-01-16T07:26:57;3.50;96.00
52787;DHT22;38661;53.152;5.846;2023-01-16T07:29:25;3.60;95.90
52787;DHT22;38661;53.152;5.846;2023-01-16T07:31:51;3.60;95.80
52787;DHT22;38661;53.152;5.846;2023-01-16T07:34:17;3.60;95.70
52787;DHT22;38661;53.152;5.846;2023-01-16T07:36:43;3.60;95.80
52787;DHT22;38661;53.152;5.846;2023-01-16T07:39:09;3.60;95.80
52787;DHT22;38661;53.152;5.846;2023-01-16T07:41:35;3.60;95.80
52787;DHT22;38661;53.152;5.846;2023-01-16T07:44:00;3.60;95.70
52787;DHT22;38661;53.152;5.846;2023-01-16T07:46:26;3.60;95.70
52787;DHT22;38661;53.152;5.846;2023-01-16T07:48:52;3.60;95.70
52787;DHT22;38661;53.152;5.846;2023-01-16T07:51:18;3.60;95.70
52787;DHT22;38661;53.152;5.846;2023-01-16T07:53:44;3.60;95.70
52787;DHT22;38661;53.152;5.846;2023-01-16T07:56:10;3.60;95.80
52787;DHT22;38661;53.152;5.846;2023-01-16T07:58:35;3.60;95.80
52787;DHT22;38661;53.152;5.846;2023-01-16T08:01:03;3.60;95.80
52787;DHT22;38661;53.152;5.846;2023-01-16T08:03:31;3.60;95.80
52787;DHT22;38661;53.152;5.846;2023-01-16T08:05:58;3.50;95.80
52787;DHT22;38661;53.152;5.846;2023-01-16T08:08:25;3.60;95.80
52787;DHT22;38661;53.152;5.846;2023-01-16T08:10:59;3.60;95.80
52787;DHT22;38661;53.152;5.846;2023-01-16T08:13:26;3.60;95.80
52787;DHT22;38661;53.152;5.846;2023-01-16T08:15:52;3.60;95.80
52787;DHT22;38661;53.152;5.846;2023-01-16T08:18:18;3.60;95.80
52787;DHT22;38661;53.152;5.846;2023-01-16T08:20:45;3.60;95.80
52787;DHT22;38661;53.152;5.846;2023-01-16T08:23:12;3.60;95.80
52787;DHT22;38661;53.152;5.846;2023-01-16T08:25:38;3.60;95.80
52787;DHT22;38661;53.152;5.846;2023-01-16T08:28:04;3.70;95.70
52787;DHT22;38661;53.152;5.846;2023-01-16T08:30:30;3.70;95.70
52787;DHT22;38661;53.152;5.846;2023-01-16T08:33:00;3.70;95.80
52787;DHT22;38661;53.152;5.846;2023-01-16T08:35:27;3.80;95.80
52787;DHT22;38661;53.152;5.846;2023-01-16T08:37:53;3.80;95.80
52787;DHT22;38661;53.152;5.846;2023-01-16T08:40:19;3.80;95.70
52787;DHT22;38661;53.152;5.846;2023-01-16T08:42:46;3.80;95.80
52787;DHT22;38661;53.152;5.846;2023-01-16T08:45:31;3.80;95.80
52787;DHT22;38661;53.152;5.846;2023-01-16T08:48:21;3.90;95.70
52787;DHT22;38661;53.152;5.846;2023-01-16T08:51:17;3.90;95.70
52787;DHT22;38661;53.152;5.846;2023-01-16T08:53:55;3.90;95.70
52787;DHT22;38661;53.152;5.846;2023-01-16T08:56:22;3.90;95.70
52787;DHT22;38661;53.152;5.846;2023-01-16T08:58:48;4.00;95.70
52787;DHT22;38661;53.152;5.846;2023-01-16T09:01:13;4.00;95.70
52787;DHT22;38661;53.152;5.846;2023-01-16T09:03:40;4.10;95.60
52787;DHT22;38661;53.152;5.846;2023-01-16T09:06:06;4.10;95.60
52787;DHT22;38661;53.152;5.846;2023-01-16T09:08:32;4.10;95.60
52787;DHT22;38661;53.152;5.846;2023-01-16T09:10:57;4.10;95.50
52787;DHT22;38661;53.152;5.846;2023-01-16T09:13:41;4.10;95.60
52787;DHT22;38661;53.152;5.846;2023-01-16T09:16:23;4.10;95.50
52787;DHT22;38661;53.152;5.846;2023-01-16T09:18:50;4.10;95.50
52787;DHT22;38661;53.152;5.846;2023-01-16T09:21:16;4.10;95.50
52787;DHT22;38661;53.152;5.846;2023-01-16T09:23:47;4.10;95.50
52787;DHT22;38661;53.152;5.846;2023-01-16T09:26:13;4.10;95.50
52787;DHT22;38661;53.152;5.846;2023-01-16T09:28:39;4.10;95.40
52787;DHT22;38661;53.152;5.846;2023-01-16T09:31:05;4.20;95.40
52787;DHT22;38661;53.152;5.846;2023-01-16T09:33:30;4.20;95.20
52787;DHT22;38661;53.152;5.846;2023-01-16T09:35:56;4.20;95.10
52787;DHT22;38661;53.152;5.846;2023-01-16T09:38:22;4.20;95.10
52787;DHT22;38661;53.152;5.846;2023-01-16T09:40:51;4.20;95.10
52787;DHT22;38661;53.152;5.846;2023-01-16T09:46:12;4.30;95.10
52787;DHT22;38661;53.152;5.846;2023-01-16T09:48:52;4.30;95.10
52787;DHT22;38661;53.152;5.846;2023-01-16T09:51:27;4.20;95.10
52787;DHT22;38661;53.152;5.846;2023-01-16T09:53:58;4.30;95.10
52787;DHT22;38661;53.152;5.846;2023-01-16T09:56:47;4.30;95.10
52787;DHT22;38661;53.152;5.846;2023-01-16T09:59:41;4.30;95.10
52787;DHT22;38661;53.152;5.846;2023-01-16T10:02:17;4.20;95.10
52787;DHT22;38661;53.152;5.846;2023-01-16T10:04:45;4.20;95.10
52787;DHT22;38661;53.152;5.846;2023-01-16T10:07:50;4.20;95.20
52787;DHT22;38661;53.152;5.846;2023-01-16T10:10:35;4.20;95.20
52787;DHT22;38661;53.152;5.846;2023-01-16T10:15:58;4.20;95.30
52787;DHT22;38661;53.152;5.846;2023-01-16T10:18:54;4.20;95.40
52787;DHT22;38661;53.152;5.846;2023-01-16T10:24:10;4.20;95.40
52787;DHT22;38661;53.152;5.846;2023-01-16T10:29:56;4.30;95.40
52787;DHT22;38661;53.152;5.846;2023-01-16T10:32:36;4.30;95.40
52787;DHT22;38661;53.152;5.846;2023-01-16T10:37:38;4.20;95.40
52787;DHT22;38661;53.152;5.846;2023-01-16T10:40:27;4.20;95.40
52787;DHT22;38661;53.152;5.846;2023-01-16T10:43:09;4.10;95.40
52787;DHT22;38661;53.152;5.846;2023-01-16T10:45:56;4.10;95.40
52787;DHT22;38661;53.152;5.846;2023-01-16T10:48:41;4.10;95.50
52787;DHT22;38661;53.152;5.846;2023-01-16T10:51:26;4.10;95.50
52787;DHT22;38661;53.152;5.846;2023-01-16T10:53:51;4.10;95.50
52787;DHT22;38661;53.152;5.846;2023-01-16T10:56:17;4.10;95.50
52787;DHT22;38661;53.152;5.846;2023-01-16T10:58:43;4.10;95.60
52787;DHT22;38661;53.152;5.846;2023-01-16T11:01:17;4.10;95.60
52787;DHT22;38661;53.152;5.846;2023-01-16T11:08:42;4.00;95.50
52787;DHT22;38661;53.152;5.846;2023-01-16T11:11:11;4.00;95.50
52787;DHT22;38661;53.152;5.846;2023-01-16T11:13:59;4.00;95.50
52787;DHT22;38661;53.152;5.846;2023-01-16T11:16:43;3.90;95.40
52787;DHT22;38661;53.152;5.846;2023-01-16T11:19:28;3.90;95.40
52787;DHT22;38661;53.152;5.846;2023-01-16T11:22:00;3.90;95.40
52787;DHT22;38661;53.152;5.846;2023-01-16T11:24:35;3.80;95.40
52787;DHT22;38661;53.152;5.846;2023-01-16T11:27:05;3.80;95.40
52787;DHT22;38661;53.152;5.846;2023-01-16T11:29:38;3.80;95.40
52787;DHT22;38661;53.152;5.846;2023-01-16T11:32:11;3.70;95.30
52787;DHT22;38661;53.152;5.846;2023-01-16T11:34:43;3.70;95.50
52787;DHT22;38661;53.152;5.846;2023-01-16T11:37:12;3.70;95.40
52787;DHT22;38661;53.152;5.846;2023-01-16T11:39:39;3.60;95.40
52787;DHT22;38661;53.152;5.846;2023-01-16T11:42:10;3.70;95.40
52787;DHT22;38661;53.152;5.846;2023-01-16T11:44:57;3.70;95.40
52787;DHT22;38661;53.152;5.846;2023-01-16T11:47:44;3.70;95.40
52787;DHT22;38661;53.152;5.846;2023-01-16T11:50:31;3.70;95.30
52787;DHT22;38661;53.152;5.846;2023-01-16T11:52:57;3.70;95.30
52787;DHT22;38661;53.152;5.846;2023-01-16T11:55:36;3.70;95.30
52787;DHT22;38661;53.152;5.846;2023-01-16T12:01:26;3.60;95.20
52787;DHT22;38661;53.152;5.846;2023-01-16T12:04:25;3.60;95.20
52787;DHT22;38661;53.152;5.846;2023-01-16T12:07:23;3.60;95.30
52787;DHT22;38661;53.152;5.846;2023-01-16T12:12:39;3.60;95.20
52787;DHT22;38661;53.152;5.846;2023-01-16T12:15:46;3.60;95.30
52787;DHT22;38661;53.152;5.846;2023-01-16T12:27:02;3.60;95.30
52787;DHT22;38661;53.152;5.846;2023-01-16T12:29:38;3.60;95.40
52787;DHT22;38661;53.152;5.846;2023-01-16T12:32:27;3.60;95.40
52787;DHT22;38661;53.152;5.846;2023-01-16T12:37:51;3.60;95.40
52787;DHT22;38661;53.152;5.846;2023-01-16T12:40:28;3.60;95.50
52787;DHT22;38661;53.152;5.846;2023-01-16T12:43:17;3.60;95.50
52787;DHT22;38661;53.152;5.846;2023-01-16T12:45:58;3.60;95.50
52787;DHT22;38661;53.152;5.846;2023-01-16T12:59:47;3.70;95.60
52787;DHT22;38661;53.152;5.846;2023-01-16T13:05:01;3.70;95.70
52787;DHT22;38661;53.152;5.846;2023-01-16T13:07:39;3.70;95.70
52787;DHT22;38661;53.152;5.846;2023-01-16T13:10:16;3.80;95.70
52787;DHT22;38661;53.152;5.846;2023-01-16T13:13:04;3.80;95.70
52787;DHT22;38661;53.152;5.846;2023-01-16T13:18:33;3.80;95.80
52787;DHT22;38661;53.152;5.846;2023-01-16T13:21:02;3.80;95.80
52787;DHT22;38661;53.152;5.846;2023-01-16T13:23:38;3.80;95.80
52787;DHT22;38661;53.152;5.846;2023-01-16T13:26:10;3.90;95.90
52787;DHT22;38661;53.152;5.846;2023-01-16T13:28:58;3.90;95.90
52787;DHT22;38661;53.152;5.846;2023-01-16T13:31:40;3.90;95.90
52787;DHT22;38661;53.152;5.846;2023-01-16T13:34:15;4.00;96.00
52787;DHT22;38661;53.152;5.846;2023-01-16T13:36:53;4.00;96.00
52787;DHT22;38661;53.152;5.846;2023-01-16T13:41:55;4.00;96.10
52787;DHT22;38661;53.152;5.846;2023-01-16T13:44:25;4.10;96.10
52787;DHT22;38661;53.152;5.846;2023-01-16T13:47:18;4.10;96.10
52787;DHT22;38661;53.152;5.846;2023-01-16T13:49:52;4.10;96.20
52787;DHT22;38661;53.152;5.846;2023-01-16T13:52:25;4.10;96.20
52787;DHT22;38661;53.152;5.846;2023-01-16T13:54:58;4.10;96.20
52787;DHT22;38661;53.152;5.846;2023-01-16T13:57:26;4.10;96.20
52787;DHT22;38661;53.152;5.846;2023-01-16T14:00:12;4.10;96.20
52787;DHT22;38661;53.152;5.846;2023-01-16T14:02:45;4.10;96.20
52787;DHT22;38661;53.152;5.846;2023-01-16T14:17:09;4.10;96.20
52787;DHT22;38661;53.152;5.846;2023-01-16T14:19:41;4.10;96.20
52787;DHT22;38661;53.152;5.846;2023-01-16T14:22:19;4.10;96.30
52787;DHT22;38661;53.152;5.846;2023-01-16T14:24:48;4.10;96.20
52787;DHT22;38661;53.152;5.846;2023-01-16T14:27:17;4.10;96.10
52787;DHT22;38661;53.152;5.846;2023-01-16T14:29:54;4.10;95.80
52787;DHT22;38661;53.152;5.846;2023-01-16T14:32:25;4.10;95.80
52787;DHT22;38661;53.152;5.846;2023-01-16T14:37:22;4.10;95.90
52787;DHT22;38661;53.152;5.846;2023-01-16T14:39:53;4.10;96.00
52787;DHT22;38661;53.152;5.846;2023-01-16T14:45:31;4.10;96.00
52787;DHT22;38661;53.152;5.846;2023-01-16T14:54:04;4.10;96.00
52787;DHT22;38661;53.152;5.846;2023-01-16T14:59:35;4.20;96.10
52787;DHT22;38661;53.152;5.846;2023-01-16T15:02:43;4.10;96.10
52787;DHT22;38661;53.152;5.846;2023-01-16T15:05:11;4.20;96.10
52787;DHT22;38661;53.152;5.846;2023-01-16T15:12:52;4.30;96.20
52787;DHT22;38661;53.152;5.846;2023-01-16T15:15:27;4.20;96.30
52787;DHT22;38661;53.152;5.846;2023-01-16T15:17:56;4.30;96.20
52787;DHT22;38661;53.152;5.846;2023-01-16T15:20:43;4.30;96.20
52787;DHT22;38661;53.152;5.846;2023-01-16T15:23:36;4.30;96.30
52787;DHT22;38661;53.152;5.846;2023-01-16T15:26:18;4.30;96.30
52787;DHT22;38661;53.152;5.846;2023-01-16T15:29:14;4.40;96.40
52787;DHT22;38661;53.152;5.846;2023-01-16T15:31:56;4.40;96.40
52787;DHT22;38661;53.152;5.846;2023-01-16T15:34:25;4.40;96.30
52787;DHT22;38661;53.152;5.846;2023-01-16T15:36:53;4.40;96.40
52787;DHT22;38661;53.152;5.846;2023-01-16T15:39:39;4.40;96.40
52787;DHT22;38661;53.152;5.846;2023-01-16T15:42:35;4.40;96.40
52787;DHT22;38661;53.152;5.846;2023-01-16T15:45:23;4.40;96.30
52787;DHT22;38661;53.152;5.846;2023-01-16T15:51:01;4.40;96.20
52787;DHT22;38661;53.152;5.846;2023-01-16T15:53:38;4.30;96.20
52787;DHT22;38661;53.152;5.846;2023-01-16T15:56:36;4.30;96.20
52787;DHT22;38661;53.152;5.846;2023-01-16T15:59:27;4.30;96.30
52787;DHT22;38661;53.152;5.846;2023-01-16T16:01:55;4.30;96.30
52787;DHT22;38661;53.152;5.846;2023-01-16T16:04:33;4.30;96.40
52787;DHT22;38661;53.152;5.846;2023-01-16T16:06:59;4.30;96.30
52787;DHT22;38661;53.152;5.846;2023-01-16T16:09:26;4.30;96.40
52787;DHT22;38661;53.152;5.846;2023-01-16T16:11:53;4.30;96.40
52787;DHT22;38661;53.152;5.846;2023-01-16T16:14:28;4.30;96.40
52787;DHT22;38661;53.152;5.846;2023-01-16T16:17:30;4.30;96.40
52787;DHT22;38661;53.152;5.846;2023-01-16T16:20:40;4.30;96.30
52787;DHT22;38661;53.152;5.846;2023-01-16T16:25:59;4.30;96.50
52787;DHT22;38661;53.152;5.846;2023-01-16T16:31:09;4.30;96.50
52787;DHT22;38661;53.152;5.846;2023-01-16T16:33:41;4.30;96.50
52787;DHT22;38661;53.152;5.846;2023-01-16T16:36:14;4.30;96.40
52787;DHT22;38661;53.152;5.846;2023-01-16T16:38:41;4.30;96.50
52787;DHT22;38661;53.152;5.846;2023-01-16T16:44:00;4.20;96.40
52787;DHT22;38661;53.152;5.846;2023-01-16T16:46:33;4.20;96.40
52787;DHT22;38661;53.152;5.846;2023-01-16T16:51:33;4.20;96.40
52787;DHT22;38661;53.152;5.846;2023-01-16T16:54:09;4.20;96.40
52787;DHT22;38661;53.152;5.846;2023-01-16T16:56:37;4.20;96.40
52787;DHT22;38661;53.152;5.846;2023-01-16T16:59:05;4.20;96.40
52787;DHT22;38661;53.152;5.846;2023-01-16T17:01:33;4.20;96.40
52787;DHT22;38661;53.152;5.846;2023-01-16T17:04:02;4.10;96.40
52787;DHT22;38661;53.152;5.846;2023-01-16T17:06:30;4.10;96.40
52787;DHT22;38661;53.152;5.846;2023-01-16T17:08:57;4.10;96.40
52787;DHT22;38661;53.152;5.846;2023-01-16T17:11:24;4.10;96.40
52787;DHT22;38661;53.152;5.846;2023-01-16T17:13:51;4.10;96.40
52787;DHT22;38661;53.152;5.846;2023-01-16T17:16:19;4.00;96.30
52787;DHT22;38661;53.152;5.846;2023-01-16T17:18:46;4.00;96.40
52787;DHT22;38661;53.152;5.846;2023-01-16T17:21:16;4.00;96.30
52787;DHT22;38661;53.152;5.846;2023-01-16T17:23:43;4.00;96.40
52787;DHT22;38661;53.152;5.846;2023-01-16T17:26:09;4.00;96.20
52787;DHT22;38661;53.152;5.846;2023-01-16T17:28:38;4.00;96.10
52787;DHT22;38661;53.152;5.846;2023-01-16T17:31:09;4.00;95.90
52787;DHT22;38661;53.152;5.846;2023-01-16T17:33:36;3.80;95.80
52787;DHT22;38661;53.152;5.846;2023-01-16T17:36:02;3.80;95.50
52787;DHT22;38661;53.152;5.846;2023-01-16T17:38:39;3.80;95.60
52787;DHT22;38661;53.152;5.846;2023-01-16T17:41:14;3.70;95.50
52787;DHT22;38661;53.152;5.846;2023-01-16T17:43:40;3.80;95.40
52787;DHT22;38661;53.152;5.846;2023-01-16T17:46:24;3.70;95.20
52787;DHT22;38661;53.152;5.846;2023-01-16T17:48:51;3.50;95.20
52787;DHT22;38661;53.152;5.846;2023-01-16T17:51:17;3.50;95.30
52787;DHT22;38661;53.152;5.846;2023-01-16T17:53:49;3.40;95.40
52787;DHT22;38661;53.152;5.846;2023-01-16T17:56:15;3.40;95.50
52787;DHT22;38661;53.152;5.846;2023-01-16T17:58:42;3.40;95.40
52787;DHT22;38661;53.152;5.846;2023-01-16T18:01:29;3.30;95.30
52787;DHT22;38661;53.152;5.846;2023-01-16T18:03:59;3.30;95.40
52787;DHT22;38661;53.152;5.846;2023-01-16T18:06:40;3.20;95.50
52787;DHT22;38661;53.152;5.846;2023-01-16T18:09:07;3.20;95.60
52787;DHT22;38661;53.152;5.846;2023-01-16T18:11:36;3.20;95.60
52787;DHT22;38661;53.152;5.846;2023-01-16T18:14:20;3.20;95.60
52787;DHT22;38661;53.152;5.846;2023-01-16T18:17:05;3.10;95.80
52787;DHT22;38661;53.152;5.846;2023-01-16T18:19:50;3.20;95.70
52787;DHT22;38661;53.152;5.846;2023-01-16T18:22:17;3.10;95.80
52787;DHT22;38661;53.152;5.846;2023-01-16T18:24:44;3.20;95.90
52787;DHT22;38661;53.152;5.846;2023-01-16T18:27:15;3.10;95.70
52787;DHT22;38661;53.152;5.846;2023-01-16T18:29:41;3.10;95.70
52787;DHT22;38661;53.152;5.846;2023-01-16T18:32:08;3.10;95.80
52787;DHT22;38661;53.152;5.846;2023-01-16T18:37:32;3.10;95.80
52787;DHT22;38661;53.152;5.846;2023-01-16T18:39:58;3.10;95.80
52787;DHT22;38661;53.152;5.846;2023-01-16T18:42:43;3.10;95.80
52787;DHT22;38661;53.152;5.846;2023-01-16T18:45:27;3.10;95.90
52787;DHT22;38661;53.152;5.846;2023-01-16T18:48:12;3.10;95.80
52787;DHT22;38661;53.152;5.846;2023-01-16T18:50:57;3.10;95.80